Time;durP1;ratioP1;P1;durP2;ratioP2;P2;SDS_P1;SDS_P2;PMS_P1;PMS_P2;Temp;Humidity;BMP_temperature;BMP_pressure;BME280_temperature;BME280_humidity;BME280_pressure;Samples;Min_cycle;Max_cycle;Signal;HPM_P1;HPM_P2
2022/01/01 00:01:29;;;;;;;20.90;13.60;;;13.20;99.90;;;;;;5065368;28;20439;-44
2022/01/01 00:03:55;;;;;;;18.10;12.50;;;13.20;99.90;;;;;;5064533;28;20820;-44
2022/01/01 00:06:21;;;;;;;18.43;13.33;;;13.20;99.90;;;;;;5069752;28;20181;-44
2022/01/01 00:08:46;;;;;;;22.90;13.07;;;13.20;99.90;;;;;;5068168;28;20181;-44
2022/01/01 00:11:13;;;;;;;16.07;10.97;;;13.20;99.90;;;;;;5069998;28;20921;-43
2022/01/01 00:13:39;;;;;;;15.20;11.40;;;13.20;99.90;;;;;;5086747;28;20180;-43
2022/01/01 00:16:09;;;;;;;13.67;10.63;;;13.20;99.90;;;;;;5078773;28;20454;-48
2022/01/01 00:18:41;;;;;;;17.50;10.60;;;13.20;99.90;;;;;;5066851;28;20830;-44
2022/01/01 00:21:07;;;;;;;17.40;11.80;;;13.20;99.90;;;;;;5069916;28;20416;-47
2022/01/01 00:23:33;;;;;;;15.73;12.40;;;13.10;99.90;;;;;;5068887;28;20973;-46
2022/01/01 00:25:59;;;;;;;17.20;10.07;;;13.10;99.90;;;;;;5056139;28;20432;-44
2022/01/01 00:28:25;;;;;;;15.97;10.00;;;13.20;99.90;;;;;;5069233;28;20226;-44
2022/01/01 00:30:50;;;;;;;14.73;10.03;;;13.20;99.90;;;;;;5068153;28;20177;-44
2022/01/01 00:33:16;;;;;;;11.20;10.00;;;13.20;99.90;;;;;;5058853;28;20687;-46
2022/01/01 00:35:42;;;;;;;15.27;8.93;;;13.20;99.90;;;;;;5069307;28;20189;-43
2022/01/01 00:38:08;;;;;;;18.27;10.80;;;13.20;99.90;;;;;;5068729;28;20196;-44
2022/01/01 00:40:34;;;;;;;12.20;9.50;;;13.20;99.90;;;;;;5069643;28;20665;-44
2022/01/01 00:43:02;;;;;;;17.80;9.90;;;13.00;99.90;;;;;;5088778;28;20984;-45
2022/01/01 00:45:28;;;;;;;12.30;9.30;;;13.20;99.90;;;;;;5072261;28;20212;-45
2022/01/01 00:47:54;;;;;;;11.80;8.90;;;13.30;99.90;;;;;;5059975;28;20439;-47
2022/01/01 00:50:19;;;;;;;13.60;9.47;;;13.10;99.90;;;;;;5068970;28;20978;-45
2022/01/01 00:52:46;;;;;;;15.87;12.37;;;13.20;99.90;;;;;;5067388;28;20189;-44
2022/01/01 00:55:12;;;;;;;15.00;10.07;;;13.20;99.90;;;;;;5067992;28;20209;-46
2022/01/01 00:57:38;;;;;;;12.03;8.90;;;13.20;99.90;;;;;;5069145;28;20473;-46
2022/01/01 01:00:05;;;;;;;19.03;10.47;;;13.20;99.90;;;;;;5048124;28;20656;-43
2022/01/01 01:02:31;;;;;;;15.93;12.00;;;13.20;99.90;;;;;;5050415;28;20212;-46
2022/01/01 01:04:57;;;;;;;13.90;9.93;;;13.20;99.90;;;;;;5064310;28;20969;-45
2022/01/01 01:07:23;;;;;;;16.57;10.27;;;13.20;99.90;;;;;;5068941;28;20216;-45
2022/01/01 01:09:49;;;;;;;18.10;9.53;;;13.20;99.90;;;;;;5068586;28;20427;-46
2022/01/01 01:12:20;;;;;;;15.27;9.97;;;13.20;99.90;;;;;;5072848;28;20547;-46
2022/01/01 01:14:46;;;;;;;17.10;10.30;;;13.20;99.90;;;;;;5068478;28;20428;-43
2022/01/01 01:17:12;;;;;;;12.53;9.60;;;13.20;99.90;;;;;;5074703;28;20436;-45
2022/01/01 01:19:38;;;;;;;19.83;10.10;;;13.20;99.90;;;;;;5063479;28;20811;-44
2022/01/01 01:22:04;;;;;;;15.37;9.93;;;13.20;99.90;;;;;;5068314;28;20415;-44
2022/01/01 01:24:30;;;;;;;21.10;11.00;;;13.20;99.90;;;;;;5067892;28;20570;-43
2022/01/01 01:27:00;;;;;;;24.23;11.33;;;13.20;99.90;;;;;;5068408;28;20502;-43
2022/01/01 01:29:26;;;;;;;19.00;12.47;;;13.20;99.90;;;;;;5068945;28;20547;-45
2022/01/01 01:31:52;;;;;;;14.50;9.70;;;13.20;99.90;;;;;;5063778;28;20432;-43
2022/01/01 01:34:18;;;;;;;12.10;10.00;;;13.20;99.90;;;;;;5062404;28;20283;-49
2022/01/01 01:36:43;;;;;;;17.53;10.67;;;13.20;99.90;;;;;;5068173;28;20185;-44
2022/01/01 01:39:09;;;;;;;17.30;11.17;;;13.20;99.90;;;;;;5067370;28;20200;-47
2022/01/01 01:41:35;;;;;;;20.17;12.17;;;13.20;99.90;;;;;;5067829;28;20188;-46
2022/01/01 01:44:06;;;;;;;17.27;10.77;;;13.20;99.90;;;;;;5067524;28;20209;-45
2022/01/01 01:46:31;;;;;;;18.50;11.80;;;13.20;99.90;;;;;;5068774;28;20423;-44
2022/01/01 01:48:57;;;;;;;19.43;11.40;;;13.10;99.90;;;;;;5059833;28;20442;-43
2022/01/01 01:51:23;;;;;;;20.77;13.00;;;13.20;99.90;;;;;;5067841;28;20218;-45
2022/01/01 01:53:49;;;;;;;19.10;11.67;;;13.10;99.90;;;;;;5067310;28;20193;-44
2022/01/01 01:56:15;;;;;;;15.83;11.37;;;13.10;99.90;;;;;;5068074;28;20450;-46
2022/01/01 01:58:41;;;;;;;17.07;10.83;;;13.10;99.90;;;;;;5067931;28;20937;-44
2022/01/01 02:04:02;;;;;;;18.53;12.23;;;13.10;99.90;;;;;;5050268;28;20521;-44
2022/01/01 02:06:27;;;;;;;19.57;12.10;;;13.10;99.90;;;;;;5066947;28;20685;-44
2022/01/01 02:08:53;;;;;;;15.30;11.40;;;13.10;99.90;;;;;;5067526;28;20429;-43
2022/01/01 02:11:21;;;;;;;15.13;10.33;;;13.10;99.90;;;;;;5066605;28;20258;-48
2022/01/01 02:14:14;;;;;;;19.70;12.43;;;13.10;99.90;;;;;;5058258;28;20185;-44
2022/01/01 02:16:50;;;;;;;17.10;14.30;;;13.10;99.90;;;;;;5062982;28;20430;-48
2022/01/01 02:19:19;;;;;;;20.90;11.17;;;13.10;99.90;;;;;;5059742;28;20813;-45
2022/01/01 02:21:45;;;;;;;13.90;10.60;;;13.10;99.90;;;;;;5067393;28;20434;-44
2022/01/01 02:24:11;;;;;;;16.63;11.20;;;13.10;99.90;;;;;;5066620;28;20977;-44
2022/01/01 02:26:36;;;;;;;19.13;11.17;;;13.10;99.90;;;;;;5067553;28;20185;-44
2022/01/01 02:29:03;;;;;;;16.27;10.33;;;13.10;99.90;;;;;;5066645;28;20197;-43
2022/01/01 02:31:31;;;;;;;21.80;12.30;;;13.10;99.90;;;;;;5067065;28;20628;-45
2022/01/01 02:34:06;;;;;;;17.80;11.20;;;13.10;99.90;;;;;;5060575;28;20825;-44
2022/01/01 02:36:37;;;;;;;15.87;11.77;;;13.20;99.90;;;;;;5066773;28;20425;-44
2022/01/01 02:39:13;;;;;;;19.33;11.70;;;13.20;99.90;;;;;;5066124;28;20427;-49
2022/01/01 02:41:40;;;;;;;13.80;9.37;;;13.30;99.90;;;;;;5066924;28;20419;-45
2022/01/01 02:44:06;;;;;;;14.90;10.50;;;13.20;99.90;;;;;;5066567;28;20454;-45
2022/01/01 02:46:33;;;;;;;17.57;12.10;;;13.20;99.90;;;;;;5067133;28;20423;-44
2022/01/01 02:48:59;;;;;;;13.77;10.63;;;13.20;99.90;;;;;;5052707;28;20501;-45
2022/01/01 02:51:25;;;;;;;15.90;10.70;;;13.10;99.90;;;;;;5067037;28;20852;-43
2022/01/01 02:53:50;;;;;;;16.13;11.00;;;13.10;99.90;;;;;;5066395;28;20694;-45
2022/01/01 02:56:16;;;;;;;17.83;11.30;;;13.10;99.90;;;;;;5066343;28;20435;-44
2022/01/01 02:58:42;;;;;;;19.00;11.90;;;13.10;99.90;;;;;;5067872;28;20217;-46
2022/01/01 03:01:09;;;;;;;17.87;10.97;;;13.10;99.90;;;;;;5066734;28;20200;-44
2022/01/01 03:03:35;;;;;;;19.07;10.90;;;13.10;99.90;;;;;;5056141;28;21153;-44
2022/01/01 03:06:02;;;;;;;17.00;10.30;;;13.20;99.90;;;;;;5066879;28;20673;-45
2022/01/01 03:08:27;;;;;;;13.80;10.90;;;13.20;99.90;;;;;;5063790;28;20514;-45
2022/01/01 03:10:53;;;;;;;17.67;12.20;;;13.20;99.90;;;;;;5067155;28;20833;-43
2022/01/01 03:13:19;;;;;;;17.30;10.80;;;13.20;99.90;;;;;;5066005;28;20192;-43
2022/01/01 03:15:44;;;;;;;21.23;11.70;;;13.20;99.90;;;;;;5075501;28;20573;-45
2022/01/01 03:18:10;;;;;;;16.50;11.50;;;13.20;99.90;;;;;;5070815;28;20194;-45
2022/01/01 03:20:36;;;;;;;16.27;10.87;;;13.20;99.90;;;;;;5060094;28;20392;-45
2022/01/01 03:23:03;;;;;;;16.97;11.70;;;13.20;99.90;;;;;;5065613;28;20189;-44
2022/01/01 03:25:28;;;;;;;16.60;12.17;;;13.20;99.90;;;;;;5066913;28;20266;-47
2022/01/01 03:27:54;;;;;;;17.00;11.70;;;13.20;99.90;;;;;;5068613;28;20797;-43
2022/01/01 03:30:20;;;;;;;21.83;13.00;;;13.20;99.90;;;;;;5066371;28;20654;-45
2022/01/01 03:32:45;;;;;;;17.13;11.90;;;13.20;99.90;;;;;;5061412;28;20365;-43
2022/01/01 03:35:11;;;;;;;15.13;11.20;;;13.20;99.90;;;;;;5058654;28;20197;-44
2022/01/01 03:37:37;;;;;;;19.07;11.87;;;13.20;99.90;;;;;;5066104;28;20189;-44
2022/01/01 03:40:04;;;;;;;16.83;11.80;;;13.20;99.90;;;;;;5065093;28;20431;-44
2022/01/01 03:42:30;;;;;;;16.50;11.13;;;13.20;99.90;;;;;;5066525;28;20224;-44
2022/01/01 03:44:56;;;;;;;19.53;11.73;;;13.20;99.90;;;;;;5065821;28;20574;-44
2022/01/01 03:47:21;;;;;;;18.80;11.97;;;13.20;99.90;;;;;;5066382;28;20424;-44
2022/01/01 03:49:47;;;;;;;15.70;10.50;;;13.20;99.90;;;;;;5058389;28;20438;-44
2022/01/01 03:52:13;;;;;;;15.90;11.20;;;13.20;99.90;;;;;;5066432;28;20409;-45
2022/01/01 03:54:38;;;;;;;19.40;12.50;;;13.20;99.90;;;;;;5065896;28;20280;-45
2022/01/01 03:57:04;;;;;;;15.57;10.80;;;13.30;99.90;;;;;;5066216;28;20216;-43
2022/01/01 03:59:30;;;;;;;18.80;12.27;;;13.20;99.90;;;;;;5066646;28;20268;-44
2022/01/01 04:01:56;;;;;;;16.93;11.80;;;13.20;99.90;;;;;;5065514;28;20197;-44
2022/01/01 04:04:23;;;;;;;24.33;11.50;;;13.20;99.90;;;;;;5055757;28;20467;-45
2022/01/01 04:06:49;;;;;;;20.57;12.27;;;13.10;99.90;;;;;;5065820;28;20234;-44
2022/01/01 04:09:15;;;;;;;14.07;11.43;;;13.10;99.90;;;;;;5066095;28;20423;-44
2022/01/01 04:11:41;;;;;;;19.30;12.77;;;13.20;99.90;;;;;;5066423;28;20586;-43
2022/01/01 04:14:11;;;;;;;18.70;12.00;;;13.20;99.90;;;;;;5065892;28;20197;-44
2022/01/01 04:16:37;;;;;;;19.70;12.27;;;13.20;99.90;;;;;;5069486;28;20739;-45
2022/01/01 04:19:03;;;;;;;18.93;12.00;;;13.20;99.90;;;;;;5062768;28;20436;-44
2022/01/01 04:21:28;;;;;;;17.60;12.10;;;13.20;99.90;;;;;;5065519;28;20434;-45
2022/01/01 04:23:54;;;;;;;21.70;13.63;;;13.20;99.90;;;;;;5064888;28;20221;-44
2022/01/01 04:26:20;;;;;;;16.33;11.10;;;13.10;99.90;;;;;;5065728;28;20213;-44
2022/01/01 04:28:46;;;;;;;17.07;12.13;;;13.10;99.90;;;;;;5066756;28;20246;-46
2022/01/01 04:31:14;;;;;;;22.63;11.77;;;13.10;99.90;;;;;;5069587;28;20687;-45
2022/01/01 04:33:40;;;;;;;20.30;12.43;;;13.10;99.90;;;;;;5060849;28;20174;-44
2022/01/01 04:36:05;;;;;;;17.40;11.93;;;12.90;99.90;;;;;;5065989;28;20415;-43
2022/01/01 04:38:42;;;;;;;17.50;12.87;;;13.10;99.90;;;;;;5067976;28;20284;-44
2022/01/01 04:41:13;;;;;;;21.20;12.20;;;13.10;99.90;;;;;;5069319;28;20232;-46
2022/01/01 04:43:40;;;;;;;16.90;11.63;;;13.10;99.90;;;;;;5067665;28;20489;-44
2022/01/01 04:46:07;;;;;;;17.97;11.10;;;13.10;99.90;;;;;;5069619;28;20839;-44
2022/01/01 04:48:36;;;;;;;21.97;13.20;;;13.10;99.90;;;;;;5064422;28;20439;-44
2022/01/01 04:51:10;;;;;;;15.10;10.73;;;13.20;99.90;;;;;;5067172;28;20556;-45
2022/01/01 04:53:36;;;;;;;19.93;12.20;;;13.10;99.90;;;;;;5068941;28;20429;-47
2022/01/01 04:56:06;;;;;;;23.77;11.87;;;13.20;99.90;;;;;;5069185;28;20408;-43
2022/01/01 04:58:32;;;;;;;19.03;11.93;;;13.10;99.90;;;;;;5069251;28;20431;-44
2022/01/01 05:00:58;;;;;;;14.77;9.63;;;13.20;99.90;;;;;;5069384;28;20516;-46
2022/01/01 05:03:23;;;;;;;16.80;10.70;;;13.10;99.90;;;;;;5064550;28;20481;-45
2022/01/01 05:05:49;;;;;;;12.90;9.47;;;13.20;99.90;;;;;;5064077;28;20184;-44
2022/01/01 05:08:15;;;;;;;14.90;10.00;;;13.10;99.90;;;;;;5068843;28;20189;-45
2022/01/01 05:10:40;;;;;;;15.27;10.20;;;13.20;99.90;;;;;;5069362;28;20478;-45
2022/01/01 05:13:06;;;;;;;15.77;9.33;;;13.20;99.90;;;;;;5068115;28;20177;-44
2022/01/01 05:15:32;;;;;;;14.40;8.60;;;13.20;99.90;;;;;;5068579;28;20197;-46
2022/01/01 05:17:57;;;;;;;15.33;10.27;;;13.20;99.90;;;;;;5082437;28;20188;-45
2022/01/01 05:20:23;;;;;;;16.63;9.00;;;13.10;99.90;;;;;;5060041;28;20813;-46
2022/01/01 05:22:49;;;;;;;14.47;8.00;;;13.10;99.90;;;;;;5067803;28;20555;-44
2022/01/01 05:25:14;;;;;;;11.00;7.33;;;13.20;99.90;;;;;;5068561;28;20200;-44
2022/01/01 05:27:40;;;;;;;15.00;8.67;;;13.10;99.90;;;;;;5068123;28;20181;-44
2022/01/01 05:30:08;;;;;;;17.00;8.93;;;13.10;99.90;;;;;;5068088;28;20219;-44
2022/01/01 05:32:34;;;;;;;14.77;9.30;;;13.10;99.90;;;;;;5068241;28;20185;-44
2022/01/01 05:35:00;;;;;;;15.73;9.83;;;13.10;99.90;;;;;;5051026;28;20431;-44
2022/01/01 05:37:25;;;;;;;13.13;8.43;;;13.10;99.90;;;;;;5067825;28;20268;-47
2022/01/01 05:39:51;;;;;;;14.83;8.57;;;13.10;99.90;;;;;;5066403;28;20185;-43
2022/01/01 05:42:17;;;;;;;17.53;8.43;;;13.10;99.90;;;;;;5068395;28;20184;-43
2022/01/01 05:44:42;;;;;;;11.23;6.90;;;13.10;99.90;;;;;;5067250;28;20572;-43
2022/01/01 05:47:08;;;;;;;13.80;7.63;;;13.10;99.90;;;;;;5068473;28;20181;-46
2022/01/01 05:49:34;;;;;;;17.63;7.63;;;13.10;99.90;;;;;;5057277;28;20192;-44
2022/01/01 05:52:00;;;;;;;12.67;7.30;;;13.10;99.90;;;;;;5064437;28;20415;-45
2022/01/01 05:54:26;;;;;;;13.80;6.90;;;13.20;99.90;;;;;;5066087;28;20227;-45
2022/01/01 05:56:51;;;;;;;8.30;6.57;;;13.20;99.90;;;;;;5067906;28;20617;-47
2022/01/01 05:59:17;;;;;;;16.63;7.40;;;13.20;99.90;;;;;;5067519;28;20439;-45
2022/01/01 06:01:43;;;;;;;11.00;6.20;;;13.30;99.90;;;;;;5067970;28;20192;-45
2022/01/01 06:04:08;;;;;;;14.00;6.63;;;13.20;99.90;;;;;;5059925;28;20703;-44
2022/01/01 06:06:34;;;;;;;10.87;6.23;;;13.20;99.90;;;;;;5062901;28;20184;-45
2022/01/01 06:09:00;;;;;;;11.70;6.63;;;13.20;99.90;;;;;;5066778;28;20203;-44
2022/01/01 06:11:25;;;;;;;11.73;6.03;;;13.20;99.90;;;;;;5080870;28;20280;-44
2022/01/01 06:13:51;;;;;;;12.00;5.87;;;13.20;99.90;;;;;;5066918;28;20220;-43
2022/01/01 06:16:17;;;;;;;10.53;6.73;;;13.20;99.90;;;;;;5066155;28;20188;-44
2022/01/01 06:18:42;;;;;;;14.03;6.83;;;13.10;99.90;;;;;;5082527;28;20279;-44
2022/01/01 06:21:08;;;;;;;11.17;6.63;;;13.10;99.90;;;;;;5071392;28;20293;-48
2022/01/01 06:23:37;;;;;;;14.63;7.07;;;13.10;99.90;;;;;;5066853;28;20571;-44
2022/01/01 06:26:03;;;;;;;9.60;6.60;;;13.10;99.90;;;;;;5067311;28;20269;-46
2022/01/01 06:28:29;;;;;;;9.13;6.60;;;13.20;99.90;;;;;;5067154;28;20428;-45
2022/01/01 06:30:55;;;;;;;13.27;6.40;;;13.20;99.90;;;;;;5067414;28;20435;-44
2022/01/01 06:33:21;;;;;;;10.50;5.80;;;13.20;99.90;;;;;;5066794;28;20774;-44
2022/01/01 06:35:48;;;;;;;12.87;6.10;;;13.20;99.90;;;;;;5058305;28;20181;-43
2022/01/01 06:38:15;;;;;;;12.27;7.00;;;13.20;99.90;;;;;;5065509;28;20495;-43
2022/01/01 06:40:42;;;;;;;9.30;6.33;;;13.20;99.90;;;;;;5065982;28;20439;-43
2022/01/01 06:43:10;;;;;;;12.80;6.70;;;13.20;99.90;;;;;;5065758;28;20447;-44
2022/01/01 06:45:36;;;;;;;10.67;7.23;;;13.20;99.90;;;;;;5067121;28;20987;-44
2022/01/01 06:48:02;;;;;;;8.77;6.27;;;13.20;99.90;;;;;;5066935;28;20427;-44
2022/01/01 06:50:28;;;;;;;8.33;5.60;;;13.20;99.90;;;;;;5052643;28;20432;-46
2022/01/01 06:52:54;;;;;;;12.17;6.20;;;13.20;99.90;;;;;;5061607;28;20413;-44
2022/01/01 06:55:20;;;;;;;9.60;6.40;;;13.20;99.90;;;;;;5066770;28;20416;-44
2022/01/01 06:57:46;;;;;;;13.07;7.10;;;13.20;99.90;;;;;;5066469;28;20876;-44
2022/01/01 07:00:13;;;;;;;9.83;6.03;;;13.20;99.90;;;;;;5067069;28;20277;-43
2022/01/01 07:02:40;;;;;;;9.83;5.97;;;13.20;99.90;;;;;;5066492;28;20431;-44
2022/01/01 07:05:07;;;;;;;9.23;5.83;;;13.20;99.90;;;;;;5055740;28;20471;-44
2022/01/01 07:07:32;;;;;;;17.40;6.50;;;13.20;99.90;;;;;;5066488;28;20498;-43
2022/01/01 07:09:58;;;;;;;10.00;6.13;;;13.20;99.90;;;;;;5067400;28;20499;-46
2022/01/01 07:12:24;;;;;;;7.70;5.20;;;13.20;99.90;;;;;;5066758;28;20195;-43
2022/01/01 07:14:49;;;;;;;7.87;5.77;;;13.20;99.90;;;;;;5066938;28;20247;-44
2022/01/01 07:17:15;;;;;;;8.30;5.03;;;13.20;99.90;;;;;;5087148;28;20200;-43
2022/01/01 07:19:41;;;;;;;7.13;4.93;;;13.20;99.90;;;;;;5071876;28;20189;-43
2022/01/01 07:22:06;;;;;;;9.87;6.23;;;13.30;99.90;;;;;;5063672;28;20188;-44
2022/01/01 07:24:32;;;;;;;11.10;6.73;;;13.30;99.90;;;;;;5065816;28;20216;-44
2022/01/01 07:26:58;;;;;;;10.30;5.93;;;13.30;99.90;;;;;;5045259;28;20182;-43
2022/01/01 07:29:23;;;;;;;12.60;4.77;;;13.30;99.90;;;;;;5064084;28;20228;-45
2022/01/01 07:31:53;;;;;;;9.13;5.67;;;13.30;99.90;;;;;;5066650;28;20199;-44
2022/01/01 07:34:19;;;;;;;8.63;5.17;;;13.30;99.90;;;;;;5062175;28;20182;-45
2022/01/01 07:36:45;;;;;;;8.70;5.73;;;13.20;99.90;;;;;;5060603;28;20515;-45
2022/01/01 07:39:11;;;;;;;10.53;4.90;;;13.20;99.90;;;;;;5063121;28;20506;-44
2022/01/01 07:41:37;;;;;;;9.50;4.87;;;13.30;99.90;;;;;;5066690;28;20435;-44
2022/01/01 07:44:03;;;;;;;6.40;4.60;;;13.20;99.90;;;;;;5064971;28;20744;-44
2022/01/01 07:46:29;;;;;;;7.40;4.50;;;13.20;99.90;;;;;;5066809;28;20734;-44
2022/01/01 07:48:55;;;;;;;6.20;4.07;;;13.20;99.90;;;;;;5066471;28;20681;-46
2022/01/01 07:51:20;;;;;;;9.13;5.20;;;13.20;99.90;;;;;;5055473;28;20701;-43
2022/01/01 07:53:46;;;;;;;5.80;3.70;;;13.20;99.90;;;;;;5065415;28;20181;-45
2022/01/01 07:56:11;;;;;;;6.93;4.53;;;13.20;99.90;;;;;;5066071;28;20279;-44
2022/01/01 07:58:37;;;;;;;8.43;4.40;;;13.20;99.90;;;;;;5067611;28;20197;-44
2022/01/01 08:01:03;;;;;;;11.03;3.97;;;13.20;99.90;;;;;;5069342;28;20177;-43
2022/01/01 08:03:29;;;;;;;8.63;4.40;;;13.30;99.90;;;;;;5066519;28;20200;-46
2022/01/01 08:05:55;;;;;;;11.63;4.37;;;13.20;99.90;;;;;;5056352;28;20185;-46
2022/01/01 08:08:22;;;;;;;7.67;3.93;;;13.30;99.90;;;;;;5069218;28;20520;-45
2022/01/01 08:10:48;;;;;;;8.30;3.53;;;13.30;99.90;;;;;;5066761;28;20511;-45
2022/01/01 08:13:21;;;;;;;8.53;4.20;;;13.20;99.90;;;;;;5068407;28;20551;-44
2022/01/01 08:15:47;;;;;;;6.80;4.53;;;13.30;99.90;;;;;;5069034;28;20427;-45
2022/01/01 08:18:13;;;;;;;8.30;4.33;;;13.30;99.90;;;;;;5086396;28;20949;-44
2022/01/01 08:20:39;;;;;;;9.90;3.93;;;13.30;99.90;;;;;;5067436;28;20439;-44
2022/01/01 08:23:05;;;;;;;8.87;4.03;;;13.30;99.90;;;;;;5065435;28;20195;-47
2022/01/01 08:25:30;;;;;;;5.90;4.33;;;13.30;99.90;;;;;;5059687;28;20218;-45
2022/01/01 08:27:56;;;;;;;10.93;5.43;;;13.30;99.90;;;;;;5068267;28;20449;-43
2022/01/01 08:30:22;;;;;;;10.80;5.20;;;13.30;99.90;;;;;;5069644;28;20189;-44
2022/01/01 08:32:47;;;;;;;4.67;3.23;;;13.40;99.90;;;;;;5067997;28;20209;-49
2022/01/01 08:35:13;;;;;;;6.80;3.90;;;13.40;99.90;;;;;;5063119;28;20224;-45
2022/01/01 08:37:40;;;;;;;10.90;5.17;;;13.30;99.90;;;;;;5065265;28;20185;-44
2022/01/01 08:40:06;;;;;;;7.63;3.50;;;13.30;99.90;;;;;;5067993;28;20264;-43
2022/01/01 08:42:32;;;;;;;7.20;3.90;;;13.30;99.90;;;;;;5067214;28;20809;-43
2022/01/01 08:44:57;;;;;;;8.40;3.80;;;13.30;99.90;;;;;;5069068;28;20512;-44
2022/01/01 08:47:26;;;;;;;10.07;4.20;;;13.30;99.90;;;;;;5069021;28;20189;-45
2022/01/01 08:49:54;;;;;;;8.97;4.90;;;13.30;99.90;;;;;;5064756;28;20190;-45
2022/01/01 08:52:21;;;;;;;8.50;4.20;;;13.20;99.90;;;;;;5062124;28;20442;-45
2022/01/01 08:54:47;;;;;;;7.83;4.30;;;13.20;99.90;;;;;;5066323;28;20551;-44
2022/01/01 08:57:13;;;;;;;7.93;3.83;;;13.20;99.90;;;;;;5068813;28;20529;-44
2022/01/01 08:59:38;;;;;;;7.93;4.60;;;13.30;99.90;;;;;;5067920;28;20205;-44
2022/01/01 09:02:04;;;;;;;8.73;3.87;;;13.30;99.90;;;;;;5068421;28;20180;-44
2022/01/01 09:04:30;;;;;;;8.07;3.57;;;13.30;99.90;;;;;;5066693;28;20212;-43
2022/01/01 09:06:56;;;;;;;8.00;2.93;;;13.40;99.90;;;;;;5059555;28;20454;-44
2022/01/01 09:09:22;;;;;;;11.27;3.30;;;13.50;99.90;;;;;;5067072;28;20492;-46
2022/01/01 09:11:47;;;;;;;5.37;2.57;;;13.50;99.90;;;;;;5068107;28;20420;-45
2022/01/01 09:14:14;;;;;;;9.23;3.87;;;13.50;99.90;;;;;;5066359;28;20192;-43
2022/01/01 09:16:39;;;;;;;8.67;3.93;;;13.50;99.90;;;;;;5067085;28;20284;-44
2022/01/01 09:19:05;;;;;;;6.03;3.83;;;13.50;99.90;;;;;;5067423;28;20526;-46
2022/01/01 09:21:31;;;;;;;7.57;3.43;;;13.60;99.90;;;;;;5054609;28;20192;-44
2022/01/01 09:23:57;;;;;;;5.30;3.10;;;13.70;99.90;;;;;;5065899;28;20232;-44
2022/01/01 09:26:24;;;;;;;5.20;2.80;;;13.90;99.90;;;;;;5067388;28;20479;-45
2022/01/01 09:28:50;;;;;;;6.00;3.40;;;14.10;99.90;;;;;;5067671;28;20481;-44
2022/01/01 09:31:16;;;;;;;7.20;2.63;;;14.40;99.90;;;;;;5064661;28;21036;-45
2022/01/01 09:33:42;;;;;;;6.27;3.43;;;14.60;99.90;;;;;;5060856;28;20431;-45
2022/01/01 09:36:09;;;;;;;9.90;3.17;;;14.70;99.90;;;;;;5061873;28;20486;-44
2022/01/01 09:38:36;;;;;;;4.87;2.93;;;14.80;99.90;;;;;;5065744;28;20193;-47
2022/01/01 09:41:03;;;;;;;9.10;2.20;;;14.90;99.90;;;;;;5067542;28;21002;-44
2022/01/01 09:43:31;;;;;;;6.30;2.73;;;14.90;99.90;;;;;;5057489;28;20921;-46
2022/01/01 09:45:58;;;;;;;6.20;2.67;;;14.90;99.90;;;;;;5065880;28;20412;-47
2022/01/01 09:48:25;;;;;;;6.40;3.20;;;15.00;99.90;;;;;;5065991;28;21063;-44
2022/01/01 09:51:01;;;;;;;4.43;2.20;;;15.10;99.90;;;;;;5059470;28;20538;-44
2022/01/01 09:53:28;;;;;;;4.47;2.27;;;15.20;99.90;;;;;;5066342;28;20469;-47
2022/01/01 09:55:56;;;;;;;6.03;2.93;;;15.40;99.90;;;;;;5065608;28;20423;-45
2022/01/01 09:58:26;;;;;;;5.47;2.20;;;15.50;99.90;;;;;;5053926;28;20436;-47
2022/01/01 10:00:52;;;;;;;4.03;2.60;;;15.60;99.90;;;;;;5062646;28;20495;-47
2022/01/01 10:03:36;;;;;;;5.60;2.43;;;15.70;99.90;;;;;;5066292;28;20815;-44
2022/01/01 10:06:08;;;;;;;5.13;2.10;;;15.60;99.90;;;;;;5057563;28;20451;-47
2022/01/01 10:08:38;;;;;;;4.33;2.63;;;15.60;99.90;;;;;;5066202;28;20859;-44
2022/01/01 10:11:04;;;;;;;3.77;1.97;;;15.40;99.90;;;;;;5066547;28;20848;-46
2022/01/01 10:13:36;;;;;;;6.03;2.93;;;15.30;99.90;;;;;;5065147;28;20423;-45
2022/01/01 10:16:05;;;;;;;5.67;2.60;;;15.20;99.90;;;;;;5067063;28;20419;-46
2022/01/01 10:18:36;;;;;;;4.70;2.30;;;15.30;99.90;;;;;;5085568;28;20572;-45
2022/01/01 10:21:03;;;;;;;5.57;2.33;;;15.20;99.90;;;;;;5066761;28;20434;-47
2022/01/01 10:23:31;;;;;;;7.37;2.60;;;15.20;99.90;;;;;;5065486;28;20430;-45
2022/01/01 10:29:06;;;;;;;5.30;2.50;;;15.10;99.90;;;;;;5066379;28;20407;-45
2022/01/01 10:31:33;;;;;;;7.83;2.90;;;15.10;99.90;;;;;;5066457;28;20415;-48
2022/01/01 10:33:59;;;;;;;5.10;2.50;;;15.10;99.90;;;;;;5065637;28;20773;-44
2022/01/01 10:36:28;;;;;;;4.43;2.10;;;15.00;99.90;;;;;;5056307;28;20490;-45
2022/01/01 10:39:05;;;;;;;4.13;2.43;;;15.00;99.90;;;;;;5059575;28;20416;-44
2022/01/01 10:41:53;;;;;;;5.57;2.10;;;15.00;99.90;;;;;;5065150;28;20414;-43
2022/01/01 10:44:27;;;;;;;6.10;2.13;;;15.10;99.90;;;;;;5065435;28;20611;-46
2022/01/01 10:46:53;;;;;;;6.60;3.03;;;15.10;99.90;;;;;;5066064;28;20482;-44
2022/01/01 10:49:33;;;;;;;6.07;2.07;;;15.20;99.90;;;;;;5066141;28;20454;-45
2022/01/01 10:52:35;;;;;;;4.10;2.53;;;15.20;99.90;;;;;;5050566;28;20189;-45
2022/01/01 10:55:03;;;;;;;5.80;2.53;;;15.20;99.90;;;;;;5005908;28;20432;-45
2022/01/01 10:57:38;;;;;;;5.13;2.30;;;15.40;99.90;;;;;;5048524;28;20451;-45
2022/01/01 11:00:14;;;;;;;6.43;2.57;;;15.50;99.90;;;;;;5064874;28;20419;-45
2022/01/01 11:02:47;;;;;;;10.33;2.60;;;15.50;99.90;;;;;;5054074;28;20522;-46
2022/01/01 11:05:13;;;;;;;4.83;2.20;;;15.60;99.90;;;;;;5065387;28;20462;-47
2022/01/01 11:07:48;;;;;;;3.90;2.20;;;15.60;99.90;;;;;;5056192;28;20439;-45
2022/01/01 11:10:14;;;;;;;2.10;1.77;;;15.60;99.90;;;;;;5065610;28;20178;-44
2022/01/01 11:12:41;;;;;;;4.33;2.50;;;15.80;99.90;;;;;;5065760;28;20458;-46
2022/01/01 11:15:08;;;;;;;5.17;2.40;;;15.80;99.90;;;;;;5065049;28;20497;-45
2022/01/01 11:17:36;;;;;;;9.40;2.40;;;15.70;99.90;;;;;;5076849;28;20465;-45
2022/01/01 11:20:03;;;;;;;4.90;2.43;;;15.70;99.90;;;;;;5085944;28;20430;-44
2022/01/01 11:22:29;;;;;;;5.90;2.03;;;15.60;99.90;;;;;;5055286;28;20849;-45
2022/01/01 11:24:55;;;;;;;3.37;2.13;;;15.60;99.90;;;;;;5064623;28;20526;-45
2022/01/01 11:27:23;;;;;;;2.93;2.20;;;15.50;99.90;;;;;;5065816;28;20188;-44
2022/01/01 11:29:50;;;;;;;5.10;2.40;;;15.50;99.90;;;;;;5065673;28;20431;-44
2022/01/01 11:32:20;;;;;;;2.60;1.90;;;15.60;99.90;;;;;;5065319;28;20697;-48
2022/01/01 11:34:49;;;;;;;4.70;1.60;;;15.60;99.90;;;;;;5064915;28;20526;-44
2022/01/01 11:37:15;;;;;;;5.03;1.80;;;15.70;99.90;;;;;;5055611;28;20483;-45
2022/01/01 11:39:45;;;;;;;4.30;1.80;;;15.60;99.90;;;;;;5067650;28;20582;-45
2022/01/01 11:42:14;;;;;;;5.50;2.50;;;15.60;99.90;;;;;;5069354;28;20423;-46
2022/01/01 11:44:53;;;;;;;6.10;1.80;;;15.50;99.90;;;;;;5068572;28;20451;-44
2022/01/01 11:47:23;;;;;;;5.93;2.37;;;15.50;99.90;;;;;;5069549;28;20840;-44
2022/01/01 11:49:52;;;;;;;4.67;2.40;;;15.40;99.90;;;;;;5069540;28;20529;-45
2022/01/01 11:52:38;;;;;;;4.97;2.30;;;15.40;99.90;;;;;;5060014;28;20458;-46
2022/01/01 11:55:13;;;;;;;5.60;2.17;;;15.30;99.90;;;;;;5067549;28;20411;-46
2022/01/01 11:57:52;;;;;;;2.90;2.13;;;15.30;99.90;;;;;;5066918;28;20449;-44
2022/01/01 12:00:18;;;;;;;8.00;2.23;;;15.30;99.90;;;;;;5071272;28;20431;-45
2022/01/01 12:02:46;;;;;;;4.00;2.43;;;15.20;99.90;;;;;;5068364;28;20423;-46
2022/01/01 12:05:22;;;;;;;5.00;2.17;;;15.20;99.90;;;;;;5072506;28;20316;-44
2022/01/01 12:07:48;;;;;;;3.23;2.00;;;15.20;99.90;;;;;;5059342;28;20427;-44
2022/01/01 12:10:17;;;;;;;4.50;2.60;;;15.10;99.90;;;;;;5068307;28;20845;-43
2022/01/01 12:12:47;;;;;;;5.70;2.27;;;15.10;99.90;;;;;;5069713;28;20420;-45
2022/01/01 12:15:29;;;;;;;3.90;2.40;;;15.10;99.90;;;;;;5068901;28;20423;-46
2022/01/01 12:18:15;;;;;;;4.53;2.33;;;15.00;99.90;;;;;;5082763;28;20438;-48
2022/01/01 12:20:57;;;;;;;5.30;2.17;;;15.00;99.90;;;;;;5087671;28;20842;-45
2022/01/01 12:23:27;;;;;;;6.47;2.10;;;15.00;99.90;;;;;;5061242;28;20600;-47
2022/01/01 12:25:55;;;;;;;5.30;2.30;;;15.00;99.90;;;;;;5069221;28;20462;-46
2022/01/01 12:28:27;;;;;;;7.23;2.47;;;15.00;99.90;;;;;;5067414;28;20431;-44
2022/01/01 12:30:55;;;;;;;6.00;2.63;;;15.00;99.90;;;;;;5068684;28;20419;-47
2022/01/01 12:33:39;;;;;;;4.67;2.33;;;15.00;99.90;;;;;;5067521;28;20435;-46
2022/01/01 12:36:11;;;;;;;4.00;1.80;;;15.00;99.90;;;;;;5066304;28;20430;-47
2022/01/01 12:38:40;;;;;;;4.00;2.20;;;15.00;99.90;;;;;;5060346;28;20443;-47
2022/01/01 12:41:16;;;;;;;2.60;2.20;;;15.00;99.90;;;;;;5068400;28;20431;-47
2022/01/01 12:43:58;;;;;;;3.93;2.07;;;15.00;99.90;;;;;;5067506;28;20423;-45
2022/01/01 12:46:29;;;;;;;4.67;2.17;;;15.00;99.90;;;;;;5068278;28;20786;-45